KMZG

Mustang Island A85a

Mustang Island A85a, Texas, USA
METAR KMZG 190935Z AUTO 24005KT 10SM SCT022 28/24 A2993 RMK A01
Observed Flight Rules
Sep-19 @ 09:35 UTC (12 minutes ago) Visual Flight Rules
Wind Visibility Clouds
240° at 5 knots 10 miles
  • Scattered at 2,200' AGL
Temperatures Readings
Current 28°C / 82°F
Dewpoint 24°C / 75°F
Humidity 79%
Altimeter 29.93" Hg
Pressure 1014 hPa
Elevation 29
METAR KMZG 190935Z AUTO 24005KT 10SM SCT022 28/24 A2993 RMK A01
Observed Flight Rules
Sep-19 @ 09:35 UTC
(12 minutes ago)
VFR
Wind Visibility
240° at 5 knots 10 miles
Clouds
  • Scattered at 2,200' AGL
Temperature Dewpoint
28°C / 82°F 24°C / 75°F
Humidity Altimeter Pressure
79% 29.93" Hg 1014 hPa